• Join FlightAware (Why Join?)
  • Login
  • US Flag 
06:11AM EDT


 

Airport Tracker/Info


-or-


 

Live Flight TrackerFlight Track Log ✈ SKW5619 ✈ 10-Jun-2013 ✈ KDEN - KHLN

Flight Track Log - Related Links

Times and Time Zones

All times are in EDT time to prevent confusion due to time zone crossing. See the SKW5619 flight status page for this flight to view local times or setup timezone preferences in your user account.

Time Position Orientation Groundspeed Altitude Reporting Facility
EDT Latitude Longitude Course Direction KTS MPH feet Rate Location/Type
11:00PM 40.2324 -105.0244 324° Northwest  Level Estimated
11:01PM 40.3250 -105.1128 324° Northwest  Level Estimated
11:02PM 40.4174 -105.2015 324° Northwest  Level Estimated
11:03PM 40.5098 -105.2904 324° Northwest  Level Estimated
11:04PM 40.6022 -105.3795 324° Northwest  Level Estimated
11:05PM 40.6944 -105.4689 324° Northwest  Level Estimated
11:06PM 40.7866 -105.5586 324° Northwest  Level Estimated
11:07PM 40.8787 -105.6485 324° Northwest  Level Estimated
11:08PM 40.9708 -105.7386 324° Northwest  Level Estimated
11:09PM 41.0628 -105.8290 323° Northwest  Level Estimated
11:10PM 41.1547 -105.9196 323° Northwest  Level Estimated
11:11PM 41.2465 -106.0105 323° Northwest  Level Estimated
11:12PM 41.3383 -106.1017 323° Northwest  Level Estimated
11:13PM 41.4300 -106.1931 323° Northwest  Level Estimated
11:14PM 41.5216 -106.2848 323° Northwest  Level Estimated
11:15PM 41.6131 -106.3767 323° Northwest  Level Estimated
11:16PM 41.7046 -106.4689 323° Northwest  Level Estimated
11:17PM 41.7960 -106.5613 323° Northwest  Level Estimated
11:18PM 41.8873 -106.6540 323° Northwest  Level Estimated
11:19PM 41.9786 -106.7470 323° Northwest  Level Estimated
11:20PM 42.0697 -106.8403 323° Northwest  Level Estimated
11:21PM 42.1608 -106.9338 323° Northwest  Level Estimated
11:22PM 42.2519 -107.0276 323° Northwest  Level Estimated
11:23PM 42.3428 -107.1216 323° Northwest  Level Estimated
11:24PM 42.4337 -107.2160 323° Northwest  Level Estimated
11:25PM 42.5245 -107.3106 322° Northwest  Level Estimated
11:26PM 42.6152 -107.4054 322° Northwest  Level Estimated
11:27PM 42.7058 -107.5006 322° Northwest  Level Estimated
11:28PM 42.7964 -107.5960 322° Northwest  Level Estimated
11:29PM 42.8869 -107.6917 322° Northwest  Level Estimated
11:30PM 42.9773 -107.7878 322° Northwest  Level Estimated
11:31PM 43.0676 -107.8840 322° Northwest  Level Estimated
11:32PM 43.1578 -107.9806 322° Northwest  Level Estimated
11:33PM 43.2480 -108.0774 322° Northwest  Level Estimated
11:34PM 43.3380 -108.1746 322° Northwest  Level Estimated
11:35PM 43.4280 -108.2720 322° Northwest  Level Estimated
11:36PM 43.5179 -108.3697 322° Northwest  Level Estimated
11:37PM 43.6078 -108.4677 322° Northwest  Level Estimated
11:38PM 43.6975 -108.5660 322° Northwest  Level Estimated
11:39PM 43.7872 -108.6646 322° Northwest  Level Estimated
11:40PM 43.8767 -108.7635 321° Northwest  Level Estimated
11:41PM 43.9662 -108.8627 321° Northwest  Level Estimated
11:42PM 44.0556 -108.9622 321° Northwest  Level Estimated
11:43PM 44.1449 -109.0619 321° Northwest  Level Estimated
11:44PM 44.2341 -109.1620 321° Northwest  Level Estimated
11:45PM 44.3233 -109.2624 321° Northwest  Level Estimated
11:46PM 44.4123 -109.3631 321° Northwest  Level Estimated
11:47PM 44.5013 -109.4641 321° Northwest  Level Estimated
11:48PM 44.5901 -109.5654 321° Northwest  Level Estimated
11:49PM 44.6789 -109.6671 321° Northwest  Level Estimated
11:50PM 44.7676 -109.7690 321° Northwest  Level Estimated
11:51PM 44.8562 -109.8712 321° Northwest  Level Estimated
11:52PM 44.9447 -109.9738 321° Northwest  Level Estimated
11:53PM 45.0331 -110.0767 321° Northwest  Level Estimated
11:54PM 45.1215 -110.1799 321° Northwest  Level Estimated
11:55PM 45.2097 -110.2834 320° Northwest  Level Estimated
11:56PM 45.2978 -110.3872 320° Northwest  Level Estimated
11:57PM 45.3859 -110.4914 320° Northwest  Level Estimated
11:58PM 45.4738 -110.5959 320° Northwest  Level Estimated
11:59PM 45.5617 -110.7007 320° Northwest  Level Estimated
12:00AM 45.6494 -110.8058 320° Northwest  Level Estimated
12:01AM 45.7371 -110.9113 320° Northwest  Level Estimated
12:02AM 45.8246 -111.0171 320° Northwest  Level Estimated
12:03AM 45.9121 -111.1232 320° Northwest  Level Estimated
12:04AM 45.9995 -111.2297 320° Northwest  Level Estimated
12:05AM 46.0867 -111.3365 320° Northwest  Level Estimated
12:06AM 46.1739 -111.4437 320° Northwest  Level Estimated
12:07AM 46.2610 -111.5511 320° Northwest  Level Estimated
12:08AM 46.3479 -111.6590 319° Northwest  Level Estimated
12:09AM 46.4348 -111.7672 319° Northwest  Level Estimated
12:10AM 46.5215 -111.8757 319° Northwest  Level Estimated
12:11AM 46.6068 -111.9827 319° Northwest  Level Estimated
12:12AM 46.6068 -111.9827 180° South  Level Estimated
12:13AM 46.6068 -111.9827 180° South  Level Estimated
12:14AM 46.6068 -111.9827 180° South  Level Estimated
12:15AM 46.6068 -111.9827 180° South  Level Estimated
12:16AM 46.6068 -111.9827 180° South  Level Estimated
12:17AM 46.6068 -111.9827 180° South  Level Estimated
12:18AM 46.6068 -111.9827 180° South  Level Estimated
12:19AM 46.6068 -111.9827 180° South  Level Estimated
12:20AM 46.6068 -111.9827 180° South  Level Estimated
12:21AM 46.6068 -111.9827 180° South  Level Estimated
12:22AM 46.6068 -111.9827 180° South  Level Estimated
12:23AM 46.6068 -111.9827 180° South  Level Estimated
12:24AM 46.6068 -111.9827 180° South  Level Estimated
12:25AM 46.6068 -111.9827 180° South  Level Estimated
12:26AM 46.6068 -111.9827 180° South  Level Estimated
12:27AM 46.6068 -111.9827 180° South  Level Estimated